Flight Track Log - Related Links

Times and Time Zones

All times are in EDT time to prevent confusion due to time zone crossing. See the EJA727 flight status page for this flight to view local times or setup timezone preferences in your user account.

Time Position Orientation Groundspeed Altitude Reporting Facility
EDT Latitude Longitude Course Direction KTS MPH feet Rate Location/Type
Fri 04:53:30 PM 32.9000 -97.0333 360° North 162 186 1,200  Level Dallas / Fort Worth TRACON
Fri 04:54:42 PM 32.9667 -97.0333 360° North 200 230 3,900 2,137 Climbing Dallas / Fort Worth TRACON
Fri 04:56:55 PM 33.1081 -96.9844 16° North 273 314 8,500 2,145 Climbing Fort Worth Center
Fri 04:57:55 PM 33.1811 -96.9517 21° North 273 314 10,800 2,800 Climbing Fort Worth Center
Fri 04:58:55 PM 33.2686 -96.9092 22° Northeast 309 356 14,100 3,050 Climbing Fort Worth Center
Fri 04:59:55 PM 33.3603 -96.8689 20° North 341 392 16,900 2,550 Climbing Fort Worth Center
Fri 05:00:55 PM 33.4458 -96.8258 23° Northeast 360 414 19,200 2,500 Climbing Fort Worth Center
Fri 05:01:55 PM 33.5519 -96.7603 27° Northeast 377 434 21,900 2,300 Climbing Fort Worth Center
Fri 05:02:55 PM 33.6392 -96.7050 28° Northeast 387 445 23,800 2,100 Climbing Fort Worth Center
Fri 05:03:55 PM 33.7514 -96.6317 29° Northeast 397 457 26,100 1,850 Climbing Fort Worth Center
Fri 05:04:55 PM 33.8344 -96.5758 29° Northeast 413 475 27,500 1,700 Climbing Fort Worth Center
Fri 05:05:55 PM 33.9614 -96.4969 27° Northeast 421 484 29,500 1,550 Climbing Fort Worth Center
Fri 05:06:55 PM 34.0714 -96.4231 29° Northeast 434 499 30,600 750 Climbing Fort Worth Center
Fri 05:07:55 PM 34.1583 -96.3519 34° Northeast 434 499 31,000 200 Climbing Fort Worth Center
Fri 05:08:55 PM 34.2642 -96.2625 35° Northeast 439 505 31,000  Level Fort Worth Center
Fri 05:09:55 PM 34.3758 -96.1731 33° Northeast 459 528 31,000  Level Fort Worth Center
Fri 05:10:55 PM 34.4833 -96.0808 35° Northeast 464 534 31,000  Level Fort Worth Center
Fri 05:11:55 PM 34.5911 -95.9933 34° Northeast 464 534 31,000  Level Fort Worth Center
Fri 05:12:55 PM 34.6983 -95.9031 35° Northeast 464 534 31,000  Level Fort Worth Center
Fri 05:13:55 PM 34.8078 -95.8128 34° Northeast 464 534 31,000  Level Fort Worth Center
Fri 05:14:55 PM 34.9211 -95.7017 39° Northeast 469 540 31,000  Level Fort Worth Center
Fri 05:15:55 PM 35.0175 -95.5908 43° Northeast 474 545 31,000  Level Fort Worth Center
Fri 05:16:55 PM 35.1139 -95.4769 44° Northeast 474 545 31,000  Level Fort Worth Center
Fri 05:18:14 PM 35.2422 -95.3247 44° Northeast 484 557 31,000  Level Memphis Center
Fri 05:19:14 PM 35.3383 -95.2133 43° Northeast 479 551 31,000  Level Memphis Center
Fri 05:20:14 PM 35.4344 -95.0992 44° Northeast 479 551 31,000  Level Memphis Center
Fri 05:21:14 PM 35.5328 -94.9850 43° Northeast 474 545 31,000 -150 Level Memphis Center
Fri 05:22:14 PM 35.6286 -94.8678 45° Northeast 479 551 30,700 -900 Descending Memphis Center
Fri 05:23:14 PM 35.7225 -94.7525 45° Northeast 473 544 29,200 -1,750 Descending Memphis Center
Fri 05:24:14 PM 35.8183 -94.6400 44° Northeast 473 544 27,200 -2,050 Descending Memphis Center
Fri 05:25:14 PM 35.9119 -94.5242 45° Northeast 473 544 25,100 -2,050 Descending Memphis Center
Fri 05:26:14 PM 36.0031 -94.4161 44° Northeast 468 539 23,100 -2,000 Descending Memphis Center
Fri 05:27:14 PM 36.0831 -94.3197 44° Northeast 430 495 21,100 -2,000 Descending Memphis Center
Fri 05:28:14 PM 36.1656 -94.2211 44° Northeast 404 465 19,100 -2,000 Descending Memphis Center
Fri 05:29:14 PM 36.2394 -94.1217 47° Northeast 394 453 17,100 -2,000 Descending Memphis Center
Fri 05:30:14 PM 36.2806 -94.0025 67° East 378 435 15,100 -2,000 Descending Memphis Center
Fri 05:31:14 PM 36.3153 -93.8856 70° East 368 423 13,100 -2,000 Descending Memphis Center
Fri 05:32:14 PM 36.3472 -93.7839 69° East 324 373 11,100 -1,850 Descending Memphis Center
Fri 05:33:14 PM 36.3767 -93.6950 68° East 317 365 9,400 -1,438 Descending Memphis Center
Fri 05:34:15 PM 36.4061 -93.6075 67° East 284 327 8,200 -1,317 Descending Kansas City Center
Fri 05:35:17 PM 36.4350 -93.5156 69° East 284 327 6,700 -1,355 Descending Kansas City Center
Fri 05:36:19 PM 36.4667 -93.4142 69° East 287 330 5,400 -1,258 Descending Kansas City Center
Fri 05:38:00 PM 36.5167 -93.2000 90° East  Level FlightAware Approximate
Fri 05:45:00 PM 36.5321 -93.2005 90° East  Level Estimated
Fri 05:46:00 PM 36.5321 -93.2005 90° East  Level Estimated
Fri 05:47:00 PM 36.5321 -93.2005 90° East  Level Estimated
Fri 05:48:00 PM 36.5321 -93.2005 90° East  Level Estimated
Fri 05:49:00 PM 36.5321 -93.2005 90° East  Level Estimated

Login

Don't have an account? Register now (free) for customized features, flight alerts, and more!